Time;durP1;ratioP1;P1;durP2;ratioP2;P2;SDS_P1;SDS_P2;PMS_P1;PMS_P2;Temp;Humidity;BMP_temperature;BMP_pressure;BME280_temperature;BME280_humidity;BME280_pressure;Samples;Min_cycle;Max_cycle;Signal;HPM_P1;HPM_P2
2021/03/25 00:00:28;;;;;;;104.20;54.70;;;11.30;92.10;;;;;;5027193;28;20424;-76
2021/03/25 00:02:57;;;;;;;103.60;55.75;;;11.30;92.20;;;;;;5043237;28;20433;-75
2021/03/25 00:05:25;;;;;;;104.30;55.20;;;11.30;92.10;;;;;;5027048;28;21158;-76
2021/03/25 00:07:52;;;;;;;104.32;55.78;;;11.30;92.20;;;;;;5040834;28;20423;-75
2021/03/25 00:10:22;;;;;;;108.03;55.33;;;11.30;92.20;;;;;;5022609;28;20425;-75
2021/03/25 00:12:49;;;;;;;110.18;55.83;;;11.30;92.30;;;;;;5022292;28;20905;-75
2021/03/25 00:15:16;;;;;;;104.95;55.10;;;11.20;92.30;;;;;;5044251;28;20428;-75
2021/03/25 00:17:42;;;;;;;109.57;55.65;;;11.20;92.40;;;;;;5044264;28;20442;-75
2021/03/25 00:20:11;;;;;;;108.10;56.80;;;11.20;92.50;;;;;;5041700;28;20926;-76
2021/03/25 00:22:40;;;;;;;112.72;56.85;;;11.20;92.60;;;;;;5043538;28;20491;-76
2021/03/25 00:25:09;;;;;;;105.35;55.50;;;11.10;92.70;;;;;;5045093;28;21741;-76
2021/03/25 00:27:36;;;;;;;110.57;57.28;;;11.10;92.90;;;;;;5025112;28;20911;-75
2021/03/25 00:30:04;;;;;;;112.40;56.87;;;11.10;93.00;;;;;;5045397;28;20421;-76
2021/03/25 00:32:30;;;;;;;109.00;56.53;;;11.10;93.10;;;;;;5044412;28;20487;-78
2021/03/25 00:34:56;;;;;;;107.63;57.00;;;11.00;93.10;;;;;;5045069;28;20861;-76
2021/03/25 00:37:22;;;;;;;114.05;56.60;;;11.00;93.20;;;;;;5044833;28;20885;-77
2021/03/25 00:39:49;;;;;;;114.55;57.15;;;11.00;93.20;;;;;;5044160;28;20883;-77
2021/03/25 00:42:15;;;;;;;111.25;57.13;;;11.00;93.30;;;;;;5042016;28;20524;-75
2021/03/25 00:44:42;;;;;;;106.73;55.23;;;11.00;93.30;;;;;;5042351;28;20431;-75
2021/03/25 00:47:09;;;;;;;107.43;55.50;;;11.00;93.30;;;;;;5027749;28;20435;-76
2021/03/25 00:49:36;;;;;;;105.78;55.17;;;10.90;93.20;;;;;;5043189;28;21337;-77
2021/03/25 00:52:03;;;;;;;103.78;54.65;;;10.90;93.10;;;;;;5044477;28;20421;-75
2021/03/25 00:54:29;;;;;;;104.75;53.88;;;11.00;93.10;;;;;;5044164;28;20417;-77
2021/03/25 00:56:56;;;;;;;105.35;53.90;;;11.00;92.90;;;;;;5026912;28;20920;-77
2021/03/25 00:59:22;;;;;;;102.20;54.08;;;11.00;92.80;;;;;;5045453;28;22279;-75
2021/03/25 01:01:49;;;;;;;98.22;52.20;;;10.90;92.60;;;;;;5046855;28;20429;-76
2021/03/25 01:04:17;;;;;;;96.90;52.03;;;10.90;92.50;;;;;;5030107;28;20542;-77
2021/03/25 01:06:44;;;;;;;100.20;51.95;;;10.90;92.40;;;;;;5027687;28;20419;-75
2021/03/25 01:09:12;;;;;;;93.93;50.13;;;10.90;92.30;;;;;;5048663;28;20421;-76
2021/03/25 01:11:39;;;;;;;93.32;49.75;;;10.90;92.30;;;;;;5044149;28;20508;-76
2021/03/25 01:14:09;;;;;;;90.13;49.35;;;10.90;92.20;;;;;;5047499;28;20516;-75
2021/03/25 01:16:42;;;;;;;89.97;48.22;;;10.90;92.20;;;;;;5048212;28;20482;-75
2021/03/25 01:19:13;;;;;;;89.47;50.28;;;10.90;92.20;;;;;;5047030;28;20516;-75
2021/03/25 01:21:40;;;;;;;89.28;48.92;;;10.90;92.20;;;;;;5048332;28;20762;-76
2021/03/25 01:24:08;;;;;;;92.07;49.80;;;10.80;92.10;;;;;;5029449;28;20859;-76
2021/03/25 01:26:35;;;;;;;89.70;49.28;;;10.80;92.20;;;;;;5030685;28;20425;-75
2021/03/25 01:29:03;;;;;;;91.82;48.72;;;10.80;92.30;;;;;;5029078;28;20917;-77
2021/03/25 01:31:33;;;;;;;86.80;47.20;;;10.80;92.30;;;;;;5031003;28;20432;-77
2021/03/25 01:34:05;;;;;;;81.78;46.13;;;10.80;92.50;;;;;;5045716;28;20424;-76
2021/03/25 01:36:32;;;;;;;82.97;45.38;;;10.80;92.60;;;;;;5048199;28;20995;-75
2021/03/25 01:38:59;;;;;;;84.43;46.23;;;10.90;92.70;;;;;;5044538;28;20425;-77
2021/03/25 01:41:29;;;;;;;83.20;44.63;;;10.90;92.60;;;;;;5030865;28;20429;-75
2021/03/25 01:43:56;;;;;;;82.80;45.38;;;10.90;92.60;;;;;;5042605;28;20436;-77
2021/03/25 01:46:27;;;;;;;81.68;44.92;;;11.00;92.50;;;;;;5029486;28;20421;-76
2021/03/25 01:48:57;;;;;;;82.97;44.93;;;11.00;92.40;;;;;;5030143;28;20902;-77
2021/03/25 01:51:50;;;;;;;84.65;45.95;;;11.00;92.40;;;;;;5047483;28;20452;-76
2021/03/25 01:54:58;;;;;;;78.18;43.78;;;11.10;92.50;;;;;;5025027;28;20438;-77
2021/03/25 01:57:47;;;;;;;79.07;43.72;;;11.10;92.50;;;;;;4966525;28;20422;-77
2021/03/25 02:00:26;;;;;;;79.28;43.75;;;11.10;92.50;;;;;;5041321;28;20433;-77
2021/03/25 02:03:12;;;;;;;76.85;43.35;;;11.10;92.40;;;;;;5044650;28;20547;-76
2021/03/25 02:05:51;;;;;;;77.60;42.60;;;11.10;92.40;;;;;;5029231;28;20948;-75
2021/03/25 02:08:31;;;;;;;84.13;44.80;;;11.10;92.50;;;;;;5029649;28;20421;-76
2021/03/25 02:11:06;;;;;;;82.68;43.90;;;11.10;92.60;;;;;;5031064;28;20429;-75
2021/03/25 02:13:41;;;;;;;78.57;42.92;;;11.10;92.60;;;;;;5028054;28;20475;-77
2021/03/25 02:16:13;;;;;;;81.47;44.13;;;11.10;92.70;;;;;;5028837;28;20432;-77
2021/03/25 02:19:05;;;;;;;78.22;43.03;;;11.10;92.80;;;;;;5045933;28;20416;-75
2021/03/25 02:21:57;;;;;;;79.78;44.97;;;11.10;92.80;;;;;;5030080;28;20425;-75
2021/03/25 02:24:43;;;;;;;79.93;44.03;;;11.10;93.00;;;;;;5044613;28;20429;-76
2021/03/25 02:27:37;;;;;;;82.18;45.25;;;11.10;93.00;;;;;;5029285;28;20490;-75
2021/03/25 02:30:07;;;;;;;80.53;44.80;;;11.10;93.00;;;;;;5024003;28;20977;-77
2021/03/25 02:32:47;;;;;;;83.90;46.10;;;11.10;93.10;;;;;;5027105;28;20468;-74
2021/03/25 02:35:25;;;;;;;83.03;44.80;;;11.10;93.20;;;;;;5029051;28;20498;-77
2021/03/25 02:37:55;;;;;;;78.45;44.40;;;11.10;93.30;;;;;;5029737;28;20433;-75
2021/03/25 02:40:28;;;;;;;80.95;45.30;;;11.10;93.30;;;;;;5028493;28;20436;-75
2021/03/25 02:43:06;;;;;;;83.93;45.47;;;11.10;93.30;;;;;;5030433;28;21385;-75
2021/03/25 02:45:35;;;;;;;81.70;44.70;;;11.20;93.30;;;;;;5044764;28;20984;-77
2021/03/25 02:48:09;;;;;;;78.97;45.30;;;11.20;93.30;;;;;;5046661;28;20573;-75
2021/03/25 02:50:40;;;;;;;84.65;45.90;;;11.20;93.40;;;;;;5043170;28;20505;-78
2021/03/25 02:53:15;;;;;;;83.38;46.55;;;11.20;93.30;;;;;;5027324;28;20505;-76
2021/03/25 02:55:42;;;;;;;84.82;46.08;;;11.20;93.40;;;;;;5031094;28;20421;-74
2021/03/25 02:58:20;;;;;;;83.43;46.60;;;11.20;93.50;;;;;;5028731;28;20425;-76
2021/03/25 03:00:56;;;;;;;89.97;46.80;;;11.20;93.60;;;;;;5026906;28;20580;-75
2021/03/25 03:03:28;;;;;;;83.75;46.75;;;11.20;93.70;;;;;;5029082;28;20432;-75
2021/03/25 03:06:17;;;;;;;89.93;49.13;;;11.20;93.80;;;;;;5045777;28;20566;-75
2021/03/25 03:08:50;;;;;;;84.70;47.63;;;11.10;93.90;;;;;;5027805;28;20436;-76
2021/03/25 03:11:20;;;;;;;85.05;48.15;;;11.10;94.00;;;;;;5029348;28;21234;-76
2021/03/25 03:13:52;;;;;;;86.70;49.05;;;11.10;94.20;;;;;;5027442;28;20429;-74
2021/03/25 03:16:25;;;;;;;92.95;50.65;;;11.00;94.30;;;;;;5046194;28;20428;-74
2021/03/25 03:18:58;;;;;;;87.60;50.50;;;11.00;94.50;;;;;;5026417;28;20830;-76
2021/03/25 03:21:32;;;;;;;92.50;51.17;;;11.00;94.60;;;;;;5028852;28;20963;-75
2021/03/25 03:24:15;;;;;;;90.95;51.05;;;10.90;94.90;;;;;;5027812;28;20487;-76
2021/03/25 03:27:08;;;;;;;93.10;51.65;;;10.90;95.50;;;;;;5027093;28;22384;-75
2021/03/25 03:29:35;;;;;;;95.00;52.30;;;10.90;95.30;;;;;;5028002;28;20428;-76
2021/03/25 03:32:14;;;;;;;95.28;52.90;;;10.90;95.50;;;;;;5026863;28;20432;-76
2021/03/25 03:34:58;;;;;;;95.25;52.22;;;10.90;95.50;;;;;;5044324;28;20420;-77
2021/03/25 03:37:31;;;;;;;98.20;52.80;;;11.00;95.70;;;;;;5027796;28;20451;-75
2021/03/25 03:40:17;;;;;;;100.43;52.67;;;11.00;95.80;;;;;;5044134;28;20555;-74
2021/03/25 03:42:45;;;;;;;97.20;54.17;;;11.00;95.80;;;;;;5026498;28;20433;-75
2021/03/25 03:45:15;;;;;;;94.90;53.05;;;11.00;95.80;;;;;;5043868;28;20436;-76
2021/03/25 03:47:53;;;;;;;98.70;53.55;;;11.00;96.00;;;;;;5021740;28;20510;-76
2021/03/25 03:50:24;;;;;;;99.97;53.90;;;11.00;96.10;;;;;;5044179;28;20433;-76
2021/03/25 03:52:53;;;;;;;103.17;54.17;;;11.00;96.10;;;;;;5041901;28;20432;-76
2021/03/25 03:55:20;;;;;;;97.15;54.30;;;11.00;96.20;;;;;;5026386;28;20421;-75
2021/03/25 03:57:59;;;;;;;101.22;54.63;;;11.00;96.30;;;;;;5025693;28;20449;-75
2021/03/25 04:00:31;;;;;;;103.90;54.55;;;11.10;96.40;;;;;;5027639;28;20424;-74
2021/03/25 04:03:11;;;;;;;102.93;55.93;;;11.10;96.40;;;;;;5024648;28;20439;-76
2021/03/25 04:06:22;;;;;;;104.97;55.45;;;11.10;96.50;;;;;;5044514;28;20983;-77
2021/03/25 04:09:21;;;;;;;106.75;56.53;;;11.10;96.50;;;;;;5027300;28;20419;-77
2021/03/25 04:11:57;;;;;;;106.15;55.72;;;11.10;96.70;;;;;;5044671;28;20785;-76
2021/03/25 04:14:33;;;;;;;102.85;56.63;;;11.10;96.70;;;;;;5027423;28;20413;-75
2021/03/25 04:17:08;;;;;;;108.85;56.97;;;11.10;96.80;;;;;;5044532;28;20428;-77
2021/03/25 04:19:41;;;;;;;101.47;56.95;;;11.10;96.90;;;;;;5026362;28;20444;-77
2021/03/25 04:22:36;;;;;;;107.13;57.20;;;11.10;96.90;;;;;;5025296;28;20440;-75
2021/03/25 04:25:07;;;;;;;106.25;57.80;;;11.10;96.90;;;;;;5044551;28;20436;-77
2021/03/25 04:27:42;;;;;;;104.68;58.00;;;11.20;96.90;;;;;;5045393;28;20421;-74
2021/03/25 04:30:12;;;;;;;107.75;56.50;;;11.20;97.00;;;;;;5042466;28;21660;-76
2021/03/25 04:32:38;;;;;;;106.80;56.85;;;11.20;97.00;;;;;;5043745;28;20486;-76
2021/03/25 04:35:07;;;;;;;111.40;57.47;;;11.20;97.00;;;;;;5047801;28;20440;-77
2021/03/25 04:37:34;;;;;;;106.53;56.92;;;11.20;97.00;;;;;;5047398;28;20425;-77
2021/03/25 04:40:07;;;;;;;106.85;56.35;;;11.20;97.00;;;;;;5047998;28;20440;-74
2021/03/25 04:42:33;;;;;;;101.68;55.95;;;11.10;97.10;;;;;;5030404;28;20432;-78
2021/03/25 04:45:05;;;;;;;109.55;56.50;;;11.10;97.20;;;;;;5043296;28;20475;-77
2021/03/25 04:47:35;;;;;;;108.53;56.50;;;11.10;97.20;;;;;;5047270;28;20437;-75
2021/03/25 04:50:06;;;;;;;104.72;56.17;;;11.20;97.70;;;;;;5030124;28;20971;-75
2021/03/25 04:52:35;;;;;;;107.60;57.47;;;11.20;97.40;;;;;;5048093;28;20433;-77
2021/03/25 04:55:08;;;;;;;108.90;56.85;;;11.10;97.40;;;;;;5048170;28;20802;-75
2021/03/25 04:57:37;;;;;;;110.13;57.90;;;11.20;97.50;;;;;;5048008;28;20846;-77
2021/03/25 05:00:09;;;;;;;105.82;56.55;;;11.10;97.60;;;;;;5046550;28;20526;-77
2021/03/25 05:02:38;;;;;;;109.07;56.75;;;11.10;97.80;;;;;;5048771;28;20447;-75
2021/03/25 05:05:06;;;;;;;110.78;56.97;;;11.10;97.90;;;;;;5047687;28;20436;-77
2021/03/25 05:07:37;;;;;;;108.80;57.67;;;11.10;98.10;;;;;;5047099;28;20429;-77
2021/03/25 05:10:15;;;;;;;100.05;55.72;;;11.10;98.20;;;;;;5047742;28;20424;-76
2021/03/25 05:12:42;;;;;;;107.23;56.43;;;11.00;98.20;;;;;;5046133;28;20460;-75
2021/03/25 05:15:13;;;;;;;108.70;55.40;;;11.00;98.30;;;;;;5048364;28;20437;-77
2021/03/25 05:17:50;;;;;;;104.00;54.80;;;11.00;98.40;;;;;;5047021;28;20413;-76
2021/03/25 05:20:20;;;;;;;104.47;55.03;;;11.10;98.60;;;;;;5047893;28;20938;-76
2021/03/25 05:22:58;;;;;;;106.25;55.50;;;11.10;98.60;;;;;;5047845;28;20892;-77
2021/03/25 05:25:30;;;;;;;105.70;55.95;;;11.10;98.70;;;;;;5044441;28;20421;-76
2021/03/25 05:28:00;;;;;;;106.38;55.10;;;11.10;98.70;;;;;;5042843;28;20432;-76
2021/03/25 05:30:30;;;;;;;106.03;55.10;;;11.10;98.80;;;;;;5042467;28;20429;-76
2021/03/25 05:33:00;;;;;;;108.47;55.28;;;11.10;98.80;;;;;;5028982;28;20551;-74
2021/03/25 05:35:32;;;;;;;107.22;55.47;;;11.10;98.80;;;;;;5028830;28;20420;-76
2021/03/25 05:38:00;;;;;;;105.50;56.30;;;11.10;98.80;;;;;;5046704;28;20421;-76
2021/03/25 05:40:31;;;;;;;108.75;55.67;;;11.10;98.80;;;;;;5024997;28;20425;-77
2021/03/25 05:43:21;;;;;;;108.85;56.00;;;11.10;98.80;;;;;;5045733;28;20504;-75
2021/03/25 05:45:54;;;;;;;100.60;54.50;;;11.10;98.80;;;;;;5011337;28;20444;-76
2021/03/25 05:48:57;;;;;;;102.93;55.42;;;11.10;98.90;;;;;;5045387;28;20425;-76
2021/03/25 05:51:33;;;;;;;103.27;54.57;;;11.10;98.90;;;;;;5027377;28;20918;-75
2021/03/25 05:54:19;;;;;;;106.65;54.20;;;11.10;98.90;;;;;;5041469;28;20433;-76
2021/03/25 05:57:00;;;;;;;104.50;53.72;;;11.10;99.00;;;;;;5026019;28;20424;-78
2021/03/25 05:59:34;;;;;;;103.22;53.38;;;11.10;98.90;;;;;;5047302;28;20425;-75
2021/03/25 06:02:08;;;;;;;107.37;54.10;;;11.10;98.90;;;;;;5046132;28;20913;-79
2021/03/25 06:04:36;;;;;;;106.43;54.42;;;11.20;99.00;;;;;;5044477;28;20478;-76
2021/03/25 06:07:32;;;;;;;104.80;53.75;;;11.10;99.00;;;;;;5025050;28;20435;-77
2021/03/25 06:10:08;;;;;;;107.72;54.78;;;11.10;99.10;;;;;;5027689;28;20433;-77
2021/03/25 06:12:45;;;;;;;105.63;54.20;;;11.10;99.30;;;;;;5026486;28;20897;-77
2021/03/25 06:15:27;;;;;;;108.05;54.03;;;11.00;99.50;;;;;;5044409;28;20447;-77
2021/03/25 06:18:14;;;;;;;104.95;54.15;;;11.00;99.80;;;;;;5029638;28;20879;-76
2021/03/25 06:20:57;;;;;;;104.03;53.55;;;10.90;99.90;;;;;;5026514;28;20426;-76
2021/03/25 06:23:33;;;;;;;102.20;53.47;;;10.90;99.90;;;;;;5045247;28;20435;-76
2021/03/25 06:26:20;;;;;;;109.53;53.80;;;10.90;99.90;;;;;;5043955;28;20448;-75
2021/03/25 06:28:50;;;;;;;107.28;54.20;;;10.90;99.90;;;;;;5041408;28;20428;-76
2021/03/25 06:31:28;;;;;;;106.88;54.00;;;10.90;99.90;;;;;;5030846;28;20475;-76
2021/03/25 06:34:06;;;;;;;106.32;52.95;;;11.00;99.90;;;;;;5043189;28;20538;-76
2021/03/25 06:36:44;;;;;;;102.00;53.47;;;11.00;99.90;;;;;;5044901;28;20436;-76
2021/03/25 06:39:20;;;;;;;103.03;52.92;;;11.00;99.90;;;;;;5045305;28;20423;-77
2021/03/25 06:41:57;;;;;;;106.57;52.87;;;11.00;99.90;;;;;;5042320;28;21161;-77
2021/03/25 06:44:33;;;;;;;106.70;54.28;;;11.00;99.90;;;;;;5046231;28;20426;-77
2021/03/25 06:47:07;;;;;;;98.90;53.17;;;11.00;99.90;;;;;;5026129;28;20509;-77
2021/03/25 06:49:41;;;;;;;106.00;54.27;;;11.00;99.90;;;;;;5046833;28;20431;-76
2021/03/25 06:52:24;;;;;;;103.38;54.45;;;11.00;99.90;;;;;;5045391;28;20444;-76
2021/03/25 06:54:54;;;;;;;105.78;52.78;;;11.10;99.90;;;;;;5047913;28;20400;-76
2021/03/25 06:57:22;;;;;;;110.10;54.67;;;11.10;99.90;;;;;;5046009;28;20916;-77
2021/03/25 06:59:55;;;;;;;103.30;53.28;;;11.10;99.90;;;;;;5039275;28;20417;-77
2021/03/25 07:02:30;;;;;;;106.95;53.85;;;11.00;99.90;;;;;;5045750;28;20424;-76
2021/03/25 07:05:00;;;;;;;105.25;54.70;;;11.00;99.90;;;;;;5024050;28;20429;-76
2021/03/25 07:07:35;;;;;;;104.33;52.63;;;11.00;99.90;;;;;;5040934;28;20421;-76
2021/03/25 07:10:04;;;;;;;99.50;52.38;;;11.00;99.90;;;;;;5046829;28;20423;-76
2021/03/25 07:12:34;;;;;;;104.55;51.90;;;11.10;99.90;;;;;;5045664;28;20397;-76
2021/03/25 07:15:01;;;;;;;99.47;51.47;;;11.10;99.90;;;;;;5044938;28;20413;-76
2021/03/25 07:17:36;;;;;;;101.88;52.67;;;11.20;99.90;;;;;;5043820;28;20948;-74
2021/03/25 07:20:17;;;;;;;98.88;51.28;;;11.10;99.90;;;;;;5042777;28;20774;-75
2021/03/25 07:22:59;;;;;;;96.18;50.95;;;11.20;99.90;;;;;;5044478;28;20437;-75
2021/03/25 07:25:26;;;;;;;98.95;49.55;;;11.20;99.90;;;;;;5047844;28;20483;-74
2021/03/25 07:27:54;;;;;;;97.72;48.63;;;11.20;99.90;;;;;;5048768;28;20813;-74
2021/03/25 07:30:23;;;;;;;90.20;47.47;;;11.30;99.90;;;;;;5042640;28;20425;-75
2021/03/25 07:32:52;;;;;;;88.60;47.03;;;11.30;99.90;;;;;;5042456;28;20754;-76
2021/03/25 07:35:29;;;;;;;88.43;45.88;;;11.40;99.90;;;;;;5044317;28;20428;-75
2021/03/25 07:37:56;;;;;;;91.10;45.57;;;11.40;99.90;;;;;;5028276;28;20429;-75
2021/03/25 07:40:34;;;;;;;90.70;46.78;;;11.40;99.90;;;;;;5030166;28;20519;-75
2021/03/25 07:43:15;;;;;;;84.63;45.20;;;11.50;99.90;;;;;;5048337;28;20423;-77
2021/03/25 07:45:43;;;;;;;90.37;46.03;;;11.50;99.90;;;;;;5023524;28;20415;-77
2021/03/25 07:48:22;;;;;;;79.28;44.35;;;11.60;99.90;;;;;;5040623;28;20430;-77
2021/03/25 07:50:51;;;;;;;86.83;44.90;;;11.60;99.90;;;;;;5035247;28;20419;-76
2021/03/25 07:53:25;;;;;;;81.80;43.08;;;11.70;99.90;;;;;;5026531;28;20470;-76
2021/03/25 07:56:06;;;;;;;81.63;42.08;;;11.70;99.90;;;;;;5041045;28;20431;-77
2021/03/25 07:58:41;;;;;;;78.50;41.72;;;11.70;99.90;;;;;;5047204;28;20409;-77
2021/03/25 08:01:11;;;;;;;74.35;38.95;;;11.70;99.90;;;;;;5029123;28;20437;-77
2021/03/25 08:03:45;;;;;;;78.30;38.63;;;11.70;99.90;;;;;;5033389;28;20428;-78
2021/03/25 08:06:23;;;;;;;77.20;38.67;;;11.70;99.90;;;;;;5028431;28;20429;-77
2021/03/25 08:09:05;;;;;;;82.63;41.50;;;11.60;99.90;;;;;;5042612;28;20433;-76
2021/03/25 08:11:33;;;;;;;81.27;42.33;;;11.60;99.90;;;;;;5049528;28;20846;-77
2021/03/25 08:14:12;;;;;;;91.30;43.80;;;11.60;99.90;;;;;;5046953;28;20519;-77
2021/03/25 08:16:44;;;;;;;87.47;43.63;;;11.50;99.90;;;;;;5051224;28;20820;-76
2021/03/25 08:19:27;;;;;;;80.65;41.33;;;11.50;99.90;;;;;;5050162;28;20444;-77
2021/03/25 08:22:08;;;;;;;81.43;43.08;;;11.40;99.90;;;;;;5050444;28;20897;-77
2021/03/25 08:25:14;;;;;;;86.17;41.60;;;11.40;99.90;;;;;;5046800;28;20782;-77
2021/03/25 08:27:55;;;;;;;83.03;41.55;;;11.30;99.90;;;;;;5043580;28;20496;-75
2021/03/25 08:30:47;;;;;;;83.22;42.70;;;11.30;99.90;;;;;;5050190;28;20421;-77
2021/03/25 08:33:23;;;;;;;87.95;42.90;;;11.20;99.90;;;;;;5049278;28;20916;-76
2021/03/25 08:35:59;;;;;;;87.35;42.20;;;11.20;99.90;;;;;;5030109;28;20432;-76
2021/03/25 08:38:45;;;;;;;89.75;43.50;;;11.20;99.90;;;;;;5049808;28;20889;-76
2021/03/25 08:41:16;;;;;;;87.88;42.00;;;11.20;99.90;;;;;;5038784;28;20556;-77
2021/03/25 08:43:50;;;;;;;80.03;39.03;;;11.20;99.90;;;;;;5031128;28;20456;-76
2021/03/25 08:46:27;;;;;;;86.03;41.40;;;11.20;99.90;;;;;;5046036;28;20429;-77
2021/03/25 08:48:57;;;;;;;98.75;43.08;;;11.10;99.90;;;;;;5029830;28;20614;-76
2021/03/25 08:51:27;;;;;;;89.43;42.17;;;11.10;99.90;;;;;;5049484;28;20429;-76
2021/03/25 08:53:57;;;;;;;90.18;43.75;;;11.10;99.90;;;;;;5049177;28;20440;-75
2021/03/25 08:56:35;;;;;;;87.20;41.25;;;11.10;99.90;;;;;;5033073;28;20437;-75
2021/03/25 08:59:07;;;;;;;89.60;41.58;;;11.10;99.90;;;;;;5027835;28;20422;-75
2021/03/25 09:01:41;;;;;;;97.03;43.95;;;11.10;99.90;;;;;;5048718;28;20429;-77
2021/03/25 09:04:10;;;;;;;89.88;42.88;;;11.10;99.90;;;;;;5050041;28;20774;-75
2021/03/25 09:06:38;;;;;;;101.38;43.83;;;11.10;99.90;;;;;;5046901;28;20436;-75
2021/03/25 09:09:32;;;;;;;87.25;41.65;;;11.10;99.90;;;;;;5046540;28;20890;-76
2021/03/25 09:11:59;;;;;;;93.97;43.07;;;11.10;99.90;;;;;;5048132;28;20433;-75
2021/03/25 09:14:28;;;;;;;78.18;38.60;;;11.10;99.90;;;;;;5046739;28;20426;-77
2021/03/25 09:17:03;;;;;;;73.43;35.03;;;11.10;99.90;;;;;;5048448;28;20790;-76
2021/03/25 09:19:32;;;;;;;62.10;33.67;;;11.10;99.90;;;;;;5047461;28;20440;-76
2021/03/25 09:22:00;;;;;;;58.75;30.42;;;11.10;99.90;;;;;;5048174;28;20432;-75
2021/03/25 09:24:27;;;;;;;64.78;32.38;;;11.10;99.90;;;;;;5047267;28;21112;-77
2021/03/25 09:26:57;;;;;;;72.70;33.30;;;11.10;99.90;;;;;;5045449;28;20433;-77
2021/03/25 09:29:26;;;;;;;70.55;32.83;;;11.10;99.90;;;;;;5044830;28;20427;-77
2021/03/25 09:32:35;;;;;;;59.97;28.75;;;11.00;99.90;;;;;;5029073;28;21895;-76
2021/03/25 09:35:24;;;;;;;50.67;27.50;;;11.00;99.90;;;;;;5048905;28;20437;-75
2021/03/25 09:37:54;;;;;;;53.42;26.05;;;11.00;99.90;;;;;;5049446;28;20421;-76
2021/03/25 09:40:43;;;;;;;45.85;24.00;;;11.00;99.90;;;;;;5049948;28;20433;-77
2021/03/25 09:43:46;;;;;;;51.15;24.92;;;11.00;99.90;;;;;;5049148;28;20432;-76
2021/03/25 09:46:30;;;;;;;47.78;23.15;;;10.90;99.90;;;;;;5045910;28;20928;-75
2021/03/25 09:49:13;;;;;;;43.15;23.20;;;10.90;99.90;;;;;;5033822;28;20433;-75
2021/03/25 09:51:42;;;;;;;44.88;21.00;;;10.90;99.90;;;;;;5046948;28;20207;-76
2021/03/25 09:54:21;;;;;;;44.88;22.08;;;10.60;99.90;;;;;;5044679;28;20191;-75
2021/03/25 09:56:47;;;;;;;52.88;22.27;;;10.40;99.90;;;;;;5048794;28;20199;-75
2021/03/25 09:59:49;;;;;;;52.40;23.85;;;10.30;99.90;;;;;;5049995;28;20211;-76
2021/03/25 10:02:52;;;;;;;45.65;23.05;;;10.30;99.90;;;;;;5049548;28;20282;-75
2021/03/25 10:05:36;;;;;;;50.85;23.17;;;10.30;99.90;;;;;;5046653;28;20598;-75
2021/03/25 10:08:24;;;;;;;56.70;23.38;;;10.20;99.90;;;;;;5050243;28;20205;-74
2021/03/25 10:10:53;;;;;;;46.17;22.17;;;10.20;99.90;;;;;;5048438;28;20612;-76
2021/03/25 10:13:34;;;;;;;47.97;22.33;;;10.20;99.90;;;;;;5044291;28;20207;-74
2021/03/25 10:16:02;;;;;;;47.40;21.52;;;10.20;99.90;;;;;;5028075;28;20226;-75
2021/03/25 10:18:49;;;;;;;46.42;21.52;;;10.20;99.90;;;;;;5045975;28;20318;-74
2021/03/25 10:21:18;;;;;;;50.13;22.23;;;10.10;99.90;;;;;;5046327;28;20655;-76
2021/03/25 10:23:56;;;;;;;47.45;22.65;;;10.10;99.90;;;;;;5046812;28;20225;-75
2021/03/25 10:26:30;;;;;;;53.50;24.90;;;10.10;99.90;;;;;;5024012;28;20222;-74
2021/03/25 10:29:02;;;;;;;49.40;24.52;;;10.10;99.90;;;;;;5046430;28;20214;-76
2021/03/25 10:31:32;;;;;;;57.17;25.52;;;10.10;99.90;;;;;;5026617;28;20204;-76
2021/03/25 10:34:05;;;;;;;56.20;25.98;;;10.00;99.90;;;;;;5041162;28;20199;-75
2021/03/25 10:36:39;;;;;;;58.65;25.80;;;10.10;99.90;;;;;;5043801;28;20215;-74
2021/03/25 10:39:08;;;;;;;56.38;24.70;;;10.00;99.90;;;;;;5047427;28;20571;-75
2021/03/25 10:41:37;;;;;;;51.58;24.50;;;10.10;99.90;;;;;;5046095;28;20248;-74
2021/03/25 10:44:18;;;;;;;47.58;24.50;;;10.10;99.90;;;;;;5045675;28;20199;-76
2021/03/25 10:46:44;;;;;;;54.85;24.55;;;10.10;99.90;;;;;;5045124;28;20195;-75
2021/03/25 10:49:17;;;;;;;48.75;23.13;;;10.20;99.90;;;;;;5046573;28;20230;-75
2021/03/25 10:51:46;;;;;;;47.35;23.45;;;10.20;99.90;;;;;;5044661;28;20202;-77
2021/03/25 10:54:21;;;;;;;49.75;23.30;;;10.20;99.90;;;;;;5046722;28;20206;-76
2021/03/25 10:56:48;;;;;;;54.95;25.25;;;10.20;99.90;;;;;;5045488;28;20683;-75
2021/03/25 10:59:20;;;;;;;48.45;23.77;;;10.30;99.90;;;;;;5047376;28;20211;-75
2021/03/25 11:01:49;;;;;;;61.17;24.88;;;10.30;99.90;;;;;;5044697;28;20199;-75
2021/03/25 11:04:18;;;;;;;54.60;23.40;;;10.30;99.90;;;;;;5045950;28;20203;-74
2021/03/25 11:06:44;;;;;;;44.70;22.88;;;10.30;99.90;;;;;;5043688;28;20265;-75
2021/03/25 11:09:16;;;;;;;48.90;23.17;;;10.30;99.90;;;;;;5047286;28;20219;-75
2021/03/25 11:11:43;;;;;;;45.28;22.60;;;10.40;99.90;;;;;;5044065;28;20386;-76
2021/03/25 11:14:22;;;;;;;47.38;22.40;;;10.40;99.90;;;;;;5045477;28;20565;-75
2021/03/25 11:16:51;;;;;;;40.92;21.92;;;10.40;99.90;;;;;;5027421;28;20211;-75
2021/03/25 11:19:19;;;;;;;44.35;22.05;;;10.40;99.90;;;;;;5042422;28;20203;-76
2021/03/25 11:21:46;;;;;;;43.80;21.27;;;10.40;99.90;;;;;;5025682;28;20257;-73
2021/03/25 11:24:18;;;;;;;44.60;22.42;;;10.40;99.90;;;;;;5045662;28;20706;-75
2021/03/25 11:26:45;;;;;;;45.35;23.02;;;10.40;99.90;;;;;;5043341;28;20257;-76
2021/03/25 11:29:16;;;;;;;47.47;22.50;;;10.40;99.90;;;;;;5044677;28;20684;-75
2021/03/25 11:31:44;;;;;;;46.97;24.10;;;10.50;99.90;;;;;;5041488;28;20667;-75
2021/03/25 11:34:24;;;;;;;50.08;23.73;;;10.50;99.90;;;;;;5029932;28;20207;-74
2021/03/25 11:36:52;;;;;;;44.72;22.17;;;10.50;99.90;;;;;;5046904;28;20207;-74
2021/03/25 11:39:22;;;;;;;45.47;22.98;;;10.60;99.90;;;;;;5033797;28;20204;-74
2021/03/25 11:41:52;;;;;;;43.97;23.30;;;10.70;99.90;;;;;;5029520;28;20232;-76
2021/03/25 11:44:40;;;;;;;39.65;21.92;;;10.70;99.90;;;;;;5027444;28;20203;-74
2021/03/25 11:47:23;;;;;;;44.30;23.63;;;10.80;99.90;;;;;;5043456;28;20206;-75
2021/03/25 11:49:51;;;;;;;42.60;22.65;;;10.90;99.90;;;;;;5025689;28;20218;-74
2021/03/25 11:52:18;;;;;;;44.28;23.42;;;11.00;99.90;;;;;;5029310;28;20302;-76
2021/03/25 11:54:46;;;;;;;43.00;22.83;;;11.10;99.90;;;;;;5044021;28;20207;-74
2021/03/25 11:57:24;;;;;;;39.67;19.90;;;11.10;99.90;;;;;;5046431;28;20740;-73
2021/03/25 12:00:09;;;;;;;35.95;18.50;;;11.20;99.90;;;;;;5040772;28;20199;-75
2021/03/25 12:02:40;;;;;;;34.72;17.58;;;11.40;99.90;;;;;;5045469;28;20199;-75
2021/03/25 12:05:36;;;;;;;35.15;16.80;;;11.50;99.90;;;;;;5043858;28;20203;-75
2021/03/25 12:08:06;;;;;;;32.03;16.15;;;11.60;99.90;;;;;;5026121;28;20221;-76
2021/03/25 12:10:32;;;;;;;30.35;15.15;;;11.70;99.90;;;;;;5028114;28;20218;-75
2021/03/25 12:12:59;;;;;;;32.10;15.07;;;11.80;99.90;;;;;;5043282;28;20234;-75
2021/03/25 12:15:26;;;;;;;30.50;14.85;;;11.90;99.90;;;;;;5027148;28;20199;-75
2021/03/25 12:17:55;;;;;;;33.90;15.35;;;12.00;99.90;;;;;;5042959;28;20205;-76
2021/03/25 12:20:24;;;;;;;30.25;14.57;;;12.00;99.90;;;;;;5026464;28;20207;-76
2021/03/25 12:23:02;;;;;;;27.05;14.82;;;12.10;99.90;;;;;;5045516;28;20214;-76
2021/03/25 12:25:29;;;;;;;25.33;14.05;;;12.10;99.90;;;;;;5043898;28;20278;-76
2021/03/25 12:27:55;;;;;;;30.48;13.85;;;12.20;99.90;;;;;;5043941;28;20203;-75
2021/03/25 12:30:22;;;;;;;27.17;14.57;;;12.30;99.90;;;;;;5040352;28;20583;-74
2021/03/25 12:32:49;;;;;;;25.33;14.00;;;12.40;99.90;;;;;;5044944;28;20671;-75
2021/03/25 12:35:18;;;;;;;27.35;13.75;;;12.50;99.90;;;;;;5042850;28;21265;-74
2021/03/25 12:37:45;;;;;;;30.02;13.88;;;12.60;99.90;;;;;;5045984;28;20211;-75
2021/03/25 12:40:15;;;;;;;33.92;13.27;;;12.70;99.90;;;;;;5043767;28;20195;-75
2021/03/25 12:42:41;;;;;;;26.65;13.38;;;12.70;99.90;;;;;;5023234;28;20602;-77
2021/03/25 12:45:09;;;;;;;34.55;13.15;;;12.70;99.90;;;;;;5042224;28;20207;-75
2021/03/25 12:47:35;;;;;;;28.80;12.65;;;12.80;99.90;;;;;;5042219;28;20246;-76
2021/03/25 12:50:05;;;;;;;22.88;11.10;;;12.80;99.90;;;;;;5043940;28;20215;-74
2021/03/25 12:52:31;;;;;;;25.48;11.10;;;12.90;99.90;;;;;;5043309;28;20202;-76
2021/03/25 12:54:58;;;;;;;26.08;10.38;;;13.00;99.50;;;;;;5045473;28;20576;-75
2021/03/25 12:57:27;;;;;;;18.15;8.15;;;13.10;99.40;;;;;;5049144;28;20592;-75